createdAt,value
2024-04-30T00:00:47.286Z,98.70
2024-04-30T00:03:09.822Z,99.50
2024-04-30T00:05:34.906Z,99.70
2024-04-30T00:07:57.631Z,99.90
2024-04-30T00:10:25.391Z,99.90
2024-04-30T00:12:48.707Z,99.90
2024-04-30T00:15:15.727Z,99.90
2024-04-30T00:17:40.021Z,99.90
2024-04-30T00:20:05.576Z,99.90
2024-04-30T00:22:28.246Z,99.90
2024-04-30T00:24:53.754Z,99.90
2024-04-30T00:27:19.061Z,99.90
2024-04-30T00:29:43.918Z,99.90
2024-04-30T00:32:06.540Z,99.90
2024-04-30T00:34:31.640Z,99.90
2024-04-30T00:36:53.972Z,99.90
2024-04-30T00:39:19.121Z,99.90
2024-04-30T00:41:41.319Z,99.80
2024-04-30T00:44:09.567Z,99.90
2024-04-30T00:46:32.057Z,99.50
2024-04-30T00:48:57.375Z,99.70
2024-04-30T00:51:20.182Z,99.90
2024-04-30T00:53:45.714Z,99.90
2024-04-30T00:56:08.909Z,99.90
2024-04-30T00:58:35.114Z,99.90
2024-04-30T01:01:00.711Z,99.90
2024-04-30T01:03:26.241Z,99.90
2024-04-30T01:05:48.677Z,99.90
2024-04-30T01:08:13.644Z,99.90
2024-04-30T01:10:36.258Z,99.90
2024-04-30T01:13:04.214Z,99.90
2024-04-30T01:15:26.701Z,99.90
2024-04-30T01:17:54.438Z,99.90
2024-04-30T01:20:17.122Z,99.90
2024-04-30T01:22:48.353Z,99.90
2024-04-30T01:25:10.573Z,99.90
2024-04-30T01:27:35.806Z,99.90
2024-04-30T01:29:58.206Z,99.90
2024-04-30T01:32:23.348Z,99.90
2024-04-30T01:34:46.102Z,99.90
2024-04-30T01:37:11.301Z,99.90
2024-04-30T01:39:36.512Z,99.90
2024-04-30T01:42:01.517Z,99.90
2024-04-30T01:44:23.932Z,99.90
2024-04-30T01:46:48.849Z,99.90
2024-04-30T01:49:10.988Z,99.90
2024-04-30T01:51:35.971Z,99.90
2024-04-30T01:53:58.082Z,99.90
2024-04-30T01:56:25.683Z,99.90
2024-04-30T01:58:47.951Z,99.90
2024-04-30T02:01:13.043Z,99.90
2024-04-30T02:03:35.424Z,99.90
2024-04-30T02:06:00.702Z,99.90
2024-04-30T02:08:22.831Z,99.90
2024-04-30T02:10:48.121Z,99.90
2024-04-30T02:13:13.633Z,99.90
2024-04-30T02:15:38.951Z,99.90
2024-04-30T02:18:01.294Z,99.90
2024-04-30T02:20:26.507Z,99.90
2024-04-30T02:22:48.680Z,99.90
2024-04-30T02:25:13.825Z,99.90
2024-04-30T02:27:35.982Z,99.90
2024-04-30T02:30:03.784Z,99.90
2024-04-30T02:32:44.405Z,99.90
2024-04-30T02:35:10.183Z,99.90
2024-04-30T02:37:35.205Z,99.90
2024-04-30T02:40:00.147Z,99.90
2024-04-30T02:42:25.424Z,99.90
2024-04-30T02:44:47.864Z,99.90
2024-04-30T02:47:15.937Z,99.90
2024-04-30T02:49:38.337Z,99.90
2024-04-30T02:52:03.481Z,99.90
2024-04-30T02:54:26.073Z,99.90
2024-04-30T02:56:51.143Z,99.90
2024-04-30T02:59:13.586Z,99.90
2024-04-30T03:01:38.649Z,99.90
2024-04-30T03:04:04.467Z,99.90
2024-04-30T03:06:29.618Z,99.90
2024-04-30T03:08:51.842Z,99.90
2024-04-30T03:11:16.961Z,99.90
2024-04-30T03:13:39.254Z,99.90
2024-04-30T03:16:04.648Z,99.90
2024-04-30T03:18:26.896Z,99.90
2024-04-30T03:20:54.711Z,99.90
2024-04-30T03:23:17.223Z,99.90
2024-04-30T03:25:42.445Z,99.90
2024-04-30T03:28:05.074Z,99.90
2024-04-30T03:30:30.258Z,99.90
2024-04-30T03:32:52.706Z,99.90
2024-04-30T03:35:18.143Z,99.90
2024-04-30T03:37:45.838Z,99.90
2024-04-30T03:40:12.019Z,99.90
2024-04-30T03:42:37.846Z,99.90
2024-04-30T03:45:03.566Z,99.90
2024-04-30T03:47:25.597Z,99.90
2024-04-30T03:49:51.473Z,99.90
2024-04-30T03:52:14.062Z,99.90
2024-04-30T03:54:42.193Z,99.90
2024-04-30T03:57:05.046Z,99.90
2024-04-30T03:59:30.385Z,99.90
2024-04-30T04:01:52.603Z,99.90
2024-04-30T04:04:17.986Z,99.90
2024-04-30T04:06:40.605Z,99.90
2024-04-30T04:09:05.554Z,99.90
2024-04-30T04:11:48.645Z,99.90
2024-04-30T04:14:29.115Z,99.90
2024-04-30T04:16:54.071Z,99.90
2024-04-30T04:19:19.426Z,99.90
2024-04-30T04:21:44.471Z,99.90
2024-04-30T04:24:10.302Z,99.90
2024-04-30T04:26:35.465Z,99.90
2024-04-30T04:29:00.833Z,99.90
2024-04-30T04:31:23.112Z,99.90
2024-04-30T04:33:48.250Z,99.90
2024-04-30T04:36:14.832Z,99.90
2024-04-30T04:38:40.013Z,99.90
2024-04-30T04:41:02.343Z,99.90
2024-04-30T04:43:30.101Z,99.90
2024-04-30T04:45:52.466Z,99.90
2024-04-30T04:48:17.421Z,99.90
2024-04-30T04:50:39.784Z,99.90
2024-04-30T04:53:04.965Z,99.90
2024-04-30T04:55:27.227Z,99.90
2024-04-30T04:57:52.164Z,99.90
2024-04-30T05:00:19.901Z,99.90
2024-04-30T05:02:44.919Z,99.90
2024-04-30T05:05:07.403Z,99.90
2024-04-30T05:07:32.682Z,99.90
2024-04-30T05:09:54.676Z,99.90
2024-04-30T05:12:19.722Z,99.90
2024-04-30T05:14:41.808Z,99.90
2024-04-30T05:17:09.648Z,99.90
2024-04-30T05:19:31.767Z,99.90
2024-04-30T05:21:56.684Z,99.90
2024-04-30T05:24:18.620Z,99.90
2024-04-30T05:26:43.506Z,99.90
2024-04-30T05:29:05.651Z,99.90
2024-04-30T05:31:30.544Z,97.30
2024-04-30T05:33:55.772Z,94.70
2024-04-30T05:36:20.284Z,91.30
2024-04-30T05:38:42.487Z,89.90
2024-04-30T05:41:07.962Z,85.40
2024-04-30T05:43:30.145Z,76.20
2024-04-30T05:45:55.265Z,72.40
2024-04-30T05:48:17.423Z,68.30
2024-04-30T05:50:45.322Z,66.20
2024-04-30T05:53:09.887Z,64.40
2024-04-30T05:55:34.990Z,58.60
2024-04-30T05:57:57.506Z,57.40
2024-04-30T06:00:22.912Z,57.20
2024-04-30T06:02:45.675Z,52.30
2024-04-30T06:05:11.124Z,51.80
2024-04-30T06:07:36.125Z,50.70
2024-04-30T06:10:01.086Z,49.70
2024-04-30T06:12:23.193Z,48.10
2024-04-30T06:14:48.021Z,47.80
2024-04-30T06:17:10.303Z,45.10
2024-04-30T06:19:35.015Z,45.30
2024-04-30T06:21:57.283Z,44.70
2024-04-30T06:24:25.863Z,44.00
2024-04-30T06:26:47.813Z,43.90
2024-04-30T06:29:12.702Z,43.70
2024-04-30T06:31:34.766Z,44.00
2024-04-30T06:34:00.824Z,42.40
2024-04-30T06:36:23.182Z,42.70
2024-04-30T06:38:47.803Z,46.20
2024-04-30T06:41:15.595Z,47.40
2024-04-30T06:43:40.857Z,47.80
2024-04-30T06:46:03.223Z,48.30
2024-04-30T06:48:28.298Z,47.00
2024-04-30T06:50:50.882Z,46.60
2024-04-30T06:53:15.802Z,45.40
2024-04-30T06:55:37.893Z,42.90
2024-04-30T06:58:05.145Z,42.30
2024-04-30T07:00:27.198Z,40.70
2024-04-30T07:02:52.098Z,39.80
2024-04-30T07:05:14.946Z,39.50
2024-04-30T07:07:39.719Z,39.00
2024-04-30T07:10:02.017Z,39.50
2024-04-30T07:12:26.923Z,40.60
2024-04-30T07:14:52.361Z,40.20
2024-04-30T07:17:17.631Z,40.00
2024-04-30T07:19:41.530Z,40.00
2024-04-30T07:22:06.728Z,39.60
2024-04-30T07:24:30.983Z,40.30
2024-04-30T07:26:55.644Z,38.60
2024-04-30T07:29:17.808Z,38.30
2024-04-30T07:31:45.355Z,38.00
2024-04-30T07:34:08.537Z,37.60
2024-04-30T07:36:33.606Z,37.80
2024-04-30T07:38:55.924Z,39.30
2024-04-30T07:41:21.397Z,38.90
2024-04-30T07:43:46.646Z,38.30
2024-04-30T07:46:11.547Z,39.10
2024-04-30T07:48:36.883Z,38.20
2024-04-30T07:51:02.186Z,37.70
2024-04-30T07:53:24.226Z,36.40
2024-04-30T07:55:48.923Z,37.30
2024-04-30T07:58:11.232Z,37.00
2024-04-30T08:00:36.389Z,37.90
2024-04-30T08:02:58.483Z,38.30
2024-04-30T08:05:26.182Z,40.20
2024-04-30T08:07:48.487Z,43.70
2024-04-30T08:10:13.441Z,40.80
2024-04-30T08:12:35.567Z,39.90
2024-04-30T08:15:01.573Z,37.40
2024-04-30T08:17:23.605Z,37.10
2024-04-30T08:19:48.150Z,36.20
2024-04-30T08:22:13.190Z,34.60
2024-04-30T08:24:38.266Z,34.80
2024-04-30T08:27:00.841Z,34.90
2024-04-30T08:29:25.683Z,33.60
2024-04-30T08:31:48.279Z,33.20
2024-04-30T08:34:13.046Z,34.20
2024-04-30T08:36:37.487Z,34.40
2024-04-30T08:39:05.167Z,33.20
2024-04-30T08:41:27.623Z,33.30
2024-04-30T08:43:52.598Z,32.70
2024-04-30T08:46:15.138Z,33.30
2024-04-30T08:48:44.567Z,32.70
2024-04-30T08:51:07.799Z,32.30
2024-04-30T08:53:33.326Z,32.50
2024-04-30T08:55:59.592Z,32.50
2024-04-30T08:58:24.460Z,32.30
2024-04-30T09:00:46.653Z,33.20
2024-04-30T09:03:13.105Z,34.70
2024-04-30T09:05:35.218Z,34.20
2024-04-30T09:08:00.769Z,34.10
2024-04-30T09:10:23.299Z,34.50
2024-04-30T09:12:51.269Z,35.20
2024-04-30T09:15:18.533Z,33.80
2024-04-30T09:17:43.394Z,33.30
2024-04-30T09:20:06.744Z,32.80
2024-04-30T09:22:31.498Z,32.90
2024-04-30T09:24:54.406Z,32.10
2024-04-30T09:27:19.605Z,32.30
2024-04-30T09:29:44.941Z,32.10
2024-04-30T09:32:10.358Z,32.20
2024-04-30T09:34:40.763Z,33.30
2024-04-30T09:37:07.636Z,31.20
2024-04-30T09:39:30.779Z,32.40
2024-04-30T09:41:56.057Z,31.10
2024-04-30T09:44:21.002Z,31.60
2024-04-30T09:46:48.389Z,32.20
2024-04-30T09:49:14.156Z,31.10
2024-04-30T09:51:40.550Z,31.40
2024-04-30T09:54:06.161Z,31.90
2024-04-30T09:56:30.122Z,31.50
2024-04-30T09:58:55.477Z,32.10
2024-04-30T10:01:20.076Z,31.50
2024-04-30T10:03:49.564Z,31.80
2024-04-30T10:06:14.432Z,31.60
2024-04-30T10:08:44.282Z,31.70
2024-04-30T10:11:07.736Z,31.30
2024-04-30T10:13:32.834Z,31.60
2024-04-30T10:15:55.661Z,31.30
2024-04-30T10:18:27.103Z,31.60
2024-04-30T10:20:52.766Z,32.00
2024-04-30T10:23:17.809Z,32.10
2024-04-30T10:25:40.413Z,31.90
2024-04-30T10:28:10.241Z,31.90
2024-04-30T10:30:33.685Z,32.90
2024-04-30T10:32:58.932Z,33.40
2024-04-30T10:35:21.528Z,32.70
2024-04-30T10:37:49.127Z,32.40
2024-04-30T10:40:13.391Z,32.90
2024-04-30T10:42:39.227Z,33.20
2024-04-30T10:45:01.408Z,33.60
2024-04-30T10:47:26.475Z,33.30
2024-04-30T10:49:51.139Z,33.60
2024-04-30T10:52:25.560Z,33.50
2024-04-30T10:54:50.991Z,34.30
2024-04-30T10:57:17.106Z,33.20
2024-04-30T10:59:39.130Z,34.00
2024-04-30T11:02:03.986Z,34.40
2024-04-30T11:04:33.617Z,34.70
2024-04-30T11:06:58.764Z,35.40
2024-04-30T11:09:21.974Z,35.00
2024-04-30T11:12:02.343Z,35.10
2024-04-30T11:14:25.522Z,36.20
2024-04-30T11:16:52.393Z,38.20
2024-04-30T11:19:14.812Z,38.70
2024-04-30T11:21:39.561Z,38.00
2024-04-30T11:24:02.003Z,41.40
2024-04-30T11:26:26.764Z,41.40
2024-04-30T11:29:03.901Z,42.40
2024-04-30T11:31:37.028Z,43.40
2024-04-30T11:33:58.937Z,44.50
2024-04-30T11:36:24.815Z,46.30
2024-04-30T11:38:47.215Z,45.40
2024-04-30T11:41:12.628Z,47.20
2024-04-30T11:43:35.477Z,46.60
2024-04-30T11:46:03.279Z,45.90
2024-04-30T11:48:29.616Z,46.40
2024-04-30T11:50:55.150Z,47.60
2024-04-30T11:53:20.189Z,48.40
2024-04-30T11:55:45.270Z,48.90
2024-04-30T11:58:07.510Z,47.80
2024-04-30T12:00:32.794Z,47.30
2024-04-30T12:02:57.809Z,47.00
2024-04-30T12:05:22.966Z,48.40
2024-04-30T12:07:44.879Z,47.90
2024-04-30T12:10:11.302Z,48.30
2024-04-30T12:12:33.358Z,48.30
2024-04-30T12:14:58.039Z,50.00
2024-04-30T12:17:20.533Z,48.80
2024-04-30T12:19:48.639Z,49.10
2024-04-30T12:22:10.607Z,49.50
2024-04-30T12:24:35.697Z,50.50
2024-04-30T12:26:58.058Z,50.80
2024-04-30T12:29:23.298Z,51.30
2024-04-30T12:31:45.533Z,50.60
2024-04-30T12:34:10.586Z,50.30
2024-04-30T12:36:38.966Z,51.30
2024-04-30T12:39:04.217Z,50.70
2024-04-30T12:41:26.560Z,51.60
2024-04-30T12:43:51.461Z,50.70
2024-04-30T12:46:15.215Z,51.90
2024-04-30T12:48:39.904Z,52.40
2024-04-30T12:51:02.208Z,53.20
2024-04-30T12:53:30.145Z,52.00
2024-04-30T12:55:52.251Z,52.80
2024-04-30T12:58:17.379Z,53.00
2024-04-30T13:00:39.759Z,53.40
2024-04-30T13:03:05.036Z,53.50
2024-04-30T13:05:27.573Z,52.30
2024-04-30T13:07:52.414Z,51.10
2024-04-30T13:10:17.744Z,52.90
2024-04-30T13:12:43.001Z,50.60
2024-04-30T13:15:05.449Z,52.00
2024-04-30T13:17:31.532Z,51.60
2024-04-30T13:19:54.111Z,54.40
2024-04-30T13:22:19.480Z,52.60
2024-04-30T13:24:41.449Z,52.80
2024-04-30T13:27:09.150Z,53.70
2024-04-30T13:29:31.536Z,54.50
2024-04-30T13:31:56.587Z,54.80
2024-04-30T13:34:18.553Z,54.90
2024-04-30T13:36:43.348Z,54.00
2024-04-30T13:39:07.107Z,54.20
2024-04-30T13:41:31.907Z,53.00
2024-04-30T13:43:57.133Z,54.10
2024-04-30T13:46:22.149Z,53.60
2024-04-30T13:48:45.005Z,53.10
2024-04-30T13:51:11.310Z,54.20
2024-04-30T13:53:36.729Z,54.50
2024-04-30T13:56:01.470Z,53.80
2024-04-30T13:58:24.138Z,54.30
2024-04-30T14:00:52.105Z,54.40
2024-04-30T14:03:14.184Z,53.30
2024-04-30T14:05:39.071Z,53.00
2024-04-30T14:08:01.527Z,53.80
2024-04-30T14:10:26.719Z,55.00
2024-04-30T14:12:49.707Z,54.20
2024-04-30T14:15:14.648Z,55.40
2024-04-30T14:17:40.238Z,55.60
2024-04-30T14:20:05.336Z,55.90
2024-04-30T14:22:27.595Z,56.80
2024-04-30T14:24:52.800Z,57.00
2024-04-30T14:27:15.048Z,57.20
2024-04-30T14:29:39.830Z,56.70
2024-04-30T14:32:02.456Z,58.80
2024-04-30T14:34:30.567Z,58.10
2024-04-30T14:36:52.640Z,58.20
2024-04-30T14:39:17.768Z,58.50
2024-04-30T14:41:40.708Z,58.20
2024-04-30T14:44:06.309Z,58.50
2024-04-30T14:46:28.530Z,57.80
2024-04-30T14:48:54.012Z,57.30
2024-04-30T14:51:18.927Z,57.30
2024-04-30T14:53:43.889Z,57.10
2024-04-30T14:56:06.230Z,57.20
2024-04-30T14:58:31.308Z,57.90
2024-04-30T15:00:53.812Z,58.10
2024-04-30T15:03:23.845Z,57.20
2024-04-30T15:05:45.943Z,57.50
2024-04-30T15:08:13.637Z,58.00
2024-04-30T15:10:38.654Z,57.20
2024-04-30T15:13:03.430Z,57.70
2024-04-30T15:15:28.150Z,59.00
2024-04-30T15:17:50.687Z,59.30
2024-04-30T15:20:15.650Z,58.90
2024-04-30T15:22:38.481Z,58.10
2024-04-30T15:25:06.375Z,58.20
2024-04-30T15:27:28.713Z,58.80
2024-04-30T15:29:53.421Z,59.10
2024-04-30T15:32:15.386Z,58.40
2024-04-30T15:34:42.316Z,59.10
2024-04-30T15:37:05.053Z,60.30
2024-04-30T15:39:30.355Z,59.60
2024-04-30T15:41:55.853Z,59.50
2024-04-30T15:44:20.474Z,59.60
2024-04-30T15:46:42.986Z,59.90
2024-04-30T15:49:08.120Z,60.30
2024-04-30T15:51:30.472Z,59.70
2024-04-30T15:53:55.209Z,59.70
2024-04-30T15:56:19.715Z,60.20
2024-04-30T15:58:49.446Z,61.20
2024-04-30T16:01:11.853Z,62.40
2024-04-30T16:03:36.777Z,62.30
2024-04-30T16:05:58.802Z,62.80
2024-04-30T16:08:23.915Z,62.60
2024-04-30T16:10:46.513Z,63.20
2024-04-30T16:13:13.004Z,63.20
2024-04-30T16:15:38.018Z,63.90
2024-04-30T16:18:04.084Z,63.50
2024-04-30T16:20:26.495Z,63.90
2024-04-30T16:22:51.522Z,63.60
2024-04-30T16:25:13.702Z,64.60
2024-04-30T16:27:38.472Z,65.30
2024-04-30T16:30:00.794Z,64.30
2024-04-30T16:32:28.898Z,65.20
2024-04-30T16:34:51.125Z,65.80
2024-04-30T16:37:16.131Z,67.40
2024-04-30T16:39:38.383Z,66.80
2024-04-30T16:42:03.996Z,66.60
2024-04-30T16:44:36.594Z,65.30
2024-04-30T16:47:06.700Z,65.40
2024-04-30T16:49:31.793Z,65.20
2024-04-30T16:51:57.186Z,65.10
2024-04-30T16:54:19.487Z,64.20
2024-04-30T16:56:44.786Z,65.00
2024-04-30T16:59:09.627Z,65.70
2024-04-30T17:01:31.670Z,66.00
2024-04-30T17:03:57.287Z,66.60
2024-04-30T17:06:25.466Z,67.10
2024-04-30T17:08:47.565Z,66.80
2024-04-30T17:11:13.214Z,67.90
2024-04-30T17:13:35.314Z,66.90
2024-04-30T17:16:01.588Z,66.70
2024-04-30T17:18:24.007Z,66.70
2024-04-30T17:20:48.984Z,68.40
2024-04-30T17:23:14.051Z,67.70
2024-04-30T17:25:39.539Z,68.30
2024-04-30T17:28:01.860Z,69.10
2024-04-30T17:30:26.969Z,68.70
2024-04-30T17:32:49.415Z,69.10
2024-04-30T17:35:13.970Z,69.00
2024-04-30T17:37:36.359Z,69.50
2024-04-30T17:40:04.294Z,71.20
2024-04-30T17:42:26.886Z,70.70
2024-04-30T17:44:51.628Z,71.60
2024-04-30T17:47:13.592Z,72.50
2024-04-30T17:49:38.286Z,73.20
2024-04-30T17:52:00.760Z,74.70
2024-04-30T17:54:25.686Z,73.00
2024-04-30T17:56:50.827Z,75.80
2024-04-30T17:59:15.786Z,76.50
2024-04-30T18:01:37.933Z,76.70
2024-04-30T18:04:03.162Z,79.00
2024-04-30T18:06:25.682Z,79.80
2024-04-30T18:08:57.732Z,79.80
2024-04-30T18:11:20.165Z,80.00
2024-04-30T18:13:49.028Z,82.80
2024-04-30T18:16:11.193Z,82.90
2024-04-30T18:18:36.176Z,83.50
2024-04-30T18:20:58.189Z,83.20
2024-04-30T18:23:23.187Z,84.80
2024-04-30T18:25:48.127Z,85.70
2024-04-30T18:28:10.566Z,86.70
2024-04-30T18:30:38.366Z,87.00
2024-04-30T18:33:00.752Z,88.50
2024-04-30T18:35:26.317Z,87.00
2024-04-30T18:37:51.227Z,88.10
2024-04-30T18:40:13.557Z,87.50
2024-04-30T18:42:38.470Z,88.00
2024-04-30T18:45:00.867Z,85.90
2024-04-30T18:47:28.647Z,85.80
2024-04-30T18:49:51.205Z,88.20
2024-04-30T18:52:16.428Z,86.80
2024-04-30T18:54:38.844Z,85.30
2024-04-30T18:57:04.443Z,86.10
2024-04-30T18:59:26.918Z,85.70
2024-04-30T19:01:51.848Z,87.90
2024-04-30T19:04:16.525Z,87.80
2024-04-30T19:06:45.975Z,88.30
2024-04-30T19:09:08.108Z,89.70
2024-04-30T19:11:33.835Z,88.80
2024-04-30T19:13:55.911Z,88.00
2024-04-30T19:16:20.672Z,89.10
2024-04-30T19:18:42.930Z,88.90
2024-04-30T19:21:10.772Z,87.70
2024-04-30T19:23:33.925Z,90.00
2024-04-30T19:25:58.667Z,89.50
2024-04-30T19:28:21.080Z,88.00
2024-04-30T19:30:46.416Z,89.80
2024-04-30T19:33:10.576Z,90.00
2024-04-30T19:35:35.728Z,88.90
2024-04-30T19:38:00.815Z,89.90
2024-04-30T19:40:26.046Z,89.80
2024-04-30T19:42:48.771Z,90.10
2024-04-30T19:45:13.856Z,90.80
2024-04-30T19:47:36.017Z,91.00
2024-04-30T19:50:01.326Z,90.60
2024-04-30T19:52:23.381Z,91.10
2024-04-30T19:54:51.073Z,91.30
2024-04-30T19:57:13.329Z,91.20
2024-04-30T19:59:38.205Z,92.00
2024-04-30T20:02:00.483Z,91.80
2024-04-30T20:04:25.271Z,91.60
2024-04-30T20:06:48.084Z,91.50
2024-04-30T20:09:14.843Z,91.30
2024-04-30T20:11:39.921Z,91.60
2024-04-30T20:14:05.266Z,93.30
2024-04-30T20:16:28.005Z,93.00
2024-04-30T20:18:53.943Z,93.20
2024-04-30T20:21:16.761Z,93.80
2024-04-30T20:23:42.121Z,93.90
2024-04-30T20:26:04.341Z,93.90
2024-04-30T20:28:32.308Z,94.40
2024-04-30T20:30:54.876Z,93.90
2024-04-30T20:33:22.659Z,94.20
2024-04-30T20:35:45.215Z,94.40
2024-04-30T20:38:10.469Z,95.10
2024-04-30T20:40:32.795Z,95.20
2024-04-30T20:42:57.879Z,95.70
2024-04-30T20:45:22.799Z,95.50
2024-04-30T20:47:48.451Z,95.60
2024-04-30T20:50:11.023Z,95.80
2024-04-30T20:52:36.263Z,96.40
2024-04-30T20:54:58.329Z,95.90
2024-04-30T20:57:23.506Z,96.10
2024-04-30T20:59:45.864Z,95.80
2024-04-30T21:02:13.658Z,96.20
2024-04-30T21:04:35.989Z,96.70
2024-04-30T21:07:01.499Z,96.90
2024-04-30T21:09:23.618Z,96.80
2024-04-30T21:11:49.674Z,97.20
2024-04-30T21:14:11.901Z,97.30
2024-04-30T21:16:41.762Z,97.50
2024-04-30T21:19:06.700Z,97.30
2024-04-30T21:21:31.892Z,97.30
2024-04-30T21:23:54.306Z,97.40
2024-04-30T21:26:19.180Z,96.80
2024-04-30T21:28:41.556Z,97.30
2024-04-30T21:31:06.850Z,97.90
2024-04-30T21:33:29.112Z,97.90
2024-04-30T21:35:57.512Z,97.60
2024-04-30T21:38:19.602Z,97.70
2024-04-30T21:40:44.634Z,97.70
2024-04-30T21:43:06.871Z,97.30
2024-04-30T21:45:32.210Z,97.50
2024-04-30T21:47:54.497Z,98.10
2024-04-30T21:50:19.753Z,98.10
2024-04-30T21:52:44.800Z,98.10
2024-04-30T21:55:10.513Z,98.50
2024-04-30T21:57:32.923Z,98.20
2024-04-30T21:59:58.292Z,98.00
2024-04-30T22:02:21.264Z,98.30
2024-04-30T22:04:46.943Z,98.30
2024-04-30T22:07:10.061Z,99.00
2024-04-30T22:09:38.407Z,99.20
2024-04-30T22:12:01.071Z,98.80
2024-04-30T22:14:26.108Z,98.20
2024-04-30T22:16:48.742Z,98.90
2024-04-30T22:19:14.175Z,98.90
2024-04-30T22:21:36.358Z,99.10
2024-04-30T22:24:01.515Z,99.80
2024-04-30T22:26:26.341Z,99.70
2024-04-30T22:28:51.562Z,99.30
2024-04-30T22:31:14.022Z,99.80
2024-04-30T22:33:39.104Z,99.90
2024-04-30T22:36:01.359Z,99.90
2024-04-30T22:38:26.812Z,99.40
2024-04-30T22:40:48.755Z,99.80
2024-04-30T22:43:16.302Z,99.90
2024-04-30T22:45:39.129Z,99.90
2024-04-30T22:48:03.979Z,99.90
2024-04-30T22:50:26.624Z,99.90
2024-04-30T22:52:52.078Z,99.90
2024-04-30T22:55:14.278Z,99.90
2024-04-30T22:57:39.554Z,99.90
2024-04-30T23:00:04.621Z,99.90
2024-04-30T23:02:29.742Z,99.90
2024-04-30T23:04:51.922Z,99.90
2024-04-30T23:07:16.728Z,99.90
2024-04-30T23:09:39.298Z,99.90
2024-04-30T23:12:04.465Z,99.90
2024-04-30T23:14:26.844Z,99.90
2024-04-30T23:16:54.800Z,99.90
2024-04-30T23:19:17.571Z,99.90
2024-04-30T23:21:42.858Z,99.90
2024-04-30T23:24:05.547Z,99.90
2024-04-30T23:26:30.722Z,99.90
2024-04-30T23:28:52.833Z,99.90
2024-04-30T23:31:17.893Z,99.90
2024-04-30T23:33:43.106Z,99.90
2024-04-30T23:36:08.823Z,99.90
2024-04-30T23:38:30.824Z,99.90
2024-04-30T23:40:55.867Z,99.90
2024-04-30T23:43:18.149Z,99.90
2024-04-30T23:45:43.524Z,99.90
2024-04-30T23:48:06.507Z,99.90
2024-04-30T23:50:34.433Z,99.90
2024-04-30T23:52:57.108Z,99.90
2024-04-30T23:55:22.265Z,99.90
2024-04-30T23:57:44.292Z,99.90
